Halstead, United Kingdom
Current Conditions -  °F | °C
As of 2:50 AM on Thursday 27 Nov 2014 (Local Time) from EGSS Reporting Station
Drizzle Drizzle  
Wind Chill: 45°   Ceiling: 100
Heat Index: 48°   Visibility: 0.31mi
Dew Point: 48°   Wind: 7mph
Humidity: 100%   Direction: 110°ESE
Pressure: 29.68"   Gusts: NA
Location:  51.94°N, 0.63°E
Report Text: EGSS 270250Z 11006KT 0500 R22/1200 -DZ OVC001 09/09 Q1005
Loading
Personal Weather Stations






























Interactive Weather Map New forecast layout! Learn more

10-Day Weather Forecast

Advertisements
Track Severe Weather on mobile